Time;durP1;ratioP1;P1;durP2;ratioP2;P2;SDS_P1;SDS_P2;PMS_P1;PMS_P2;Temp;Humidity;BMP_temperature;BMP_pressure;BME280_temperature;BME280_humidity;BME280_pressure;Samples;Min_cycle;Max_cycle;Signal;HPM_P1;HPM_P2
2022/08/15 00:00:50;;;;;;;7.47;3.35;;;;;;;;;;4407408;32;20071;-67
2022/08/15 00:03:39;;;;;;;6.28;3.03;;;;;;;;;;4405382;32;20070;-67
2022/08/15 00:06:09;;;;;;;9.50;3.50;;;;;;;;;;4405095;32;20515;-67
2022/08/15 00:08:40;;;;;;;7.15;3.15;;;;;;;;;;4406254;32;20101;-66
2022/08/15 00:11:10;;;;;;;5.97;2.70;;;;;;;;;;4406066;32;20103;-67
2022/08/15 00:13:38;;;;;;;4.68;2.92;;;;;;;;;;4393469;32;20082;-66
2022/08/15 00:16:05;;;;;;;5.53;2.83;;;;;;;;;;4405691;32;20519;-68
2022/08/15 00:18:33;;;;;;;5.10;3.03;;;;;;;;;;4392622;32;20464;-67
2022/08/15 00:21:00;;;;;;;7.50;3.75;;;;;;;;;;4393415;32;20084;-68
2022/08/15 00:23:27;;;;;;;6.37;3.60;;;;;;;;;;4405243;32;20069;-68
2022/08/15 00:25:58;;;;;;;9.18;3.50;;;;;;;;;;4407134;32;20145;-68
2022/08/15 00:28:26;;;;;;;9.02;3.90;;;;;;;;;;4392795;32;20058;-67
2022/08/15 00:30:53;;;;;;;9.23;3.80;;;;;;;;;;4405533;32;20080;-67
2022/08/15 00:33:20;;;;;;;7.93;4.07;;;;;;;;;;4392533;32;20141;-68
2022/08/15 00:35:49;;;;;;;6.87;3.95;;;;;;;;;;4406560;32;20500;-68
2022/08/15 00:38:21;;;;;;;10.85;3.70;;;;;;;;;;4392827;32;20088;-67
2022/08/15 00:43:37;;;;;;;7.00;4.10;;;;;;;;;;4414239;32;20089;-67
2022/08/15 00:46:07;;;;;;;6.55;3.15;;;;;;;;;;4407139;32;20195;-68
2022/08/15 00:48:42;;;;;;;6.12;3.05;;;;;;;;;;4406236;32;20156;-68
2022/08/15 00:51:30;;;;;;;6.37;3.00;;;;;;;;;;4381760;32;20095;-67
2022/08/15 00:54:12;;;;;;;6.68;3.20;;;;;;;;;;4405151;32;20077;-67
2022/08/15 00:56:52;;;;;;;4.68;3.00;;;;;;;;;;4392534;32;20454;-67
2022/08/15 00:59:23;;;;;;;5.50;2.85;;;;;;;;;;4392582;32;20077;-66
2022/08/15 01:01:51;;;;;;;4.47;2.58;;;;;;;;;;4393246;32;20104;-68
2022/08/15 01:04:18;;;;;;;5.45;2.72;;;;;;;;;;4392974;32;20459;-67
2022/08/15 01:06:45;;;;;;;3.95;2.60;;;;;;;;;;4379980;32;20109;-68
2022/08/15 01:09:13;;;;;;;3.62;2.45;;;;;;;;;;4392087;32;20486;-67
2022/08/15 01:11:58;;;;;;;3.83;2.67;;;;;;;;;;4405521;32;20528;-67
2022/08/15 01:14:26;;;;;;;4.70;2.53;;;;;;;;;;4392872;32;20073;-68
2022/08/15 01:16:53;;;;;;;5.97;2.95;;;;;;;;;;4392513;32;20512;-67
2022/08/15 01:19:26;;;;;;;5.00;2.47;;;;;;;;;;4404707;32;20073;-68
2022/08/15 01:22:05;;;;;;;4.18;2.72;;;;;;;;;;4393220;32;20081;-67
2022/08/15 01:24:53;;;;;;;5.53;3.08;;;;;;;;;;4405919;32;20081;-67
2022/08/15 01:27:22;;;;;;;5.93;2.58;;;;;;;;;;4408546;32;20070;-66
2022/08/15 01:29:50;;;;;;;6.55;3.05;;;;;;;;;;4395692;32;20096;-66
2022/08/15 01:32:17;;;;;;;6.82;2.78;;;;;;;;;;4395440;32;20536;-67
2022/08/15 01:34:44;;;;;;;4.12;2.45;;;;;;;;;;4409415;32;20153;-67
2022/08/15 01:37:10;;;;;;;7.05;2.60;;;;;;;;;;4407607;32;20093;-66
2022/08/15 01:40:22;;;;;;;4.22;2.40;;;;;;;;;;4395019;32;20085;-67
2022/08/15 01:42:50;;;;;;;5.70;2.47;;;;;;;;;;4393729;32;20163;-67
2022/08/15 01:45:21;;;;;;;3.28;2.17;;;;;;;;;;4407733;32;20092;-67
2022/08/15 01:48:21;;;;;;;5.10;2.70;;;;;;;;;;4395243;32;20142;-68
2022/08/15 01:50:51;;;;;;;6.03;3.20;;;;;;;;;;4394772;32;20535;-67
2022/08/15 01:54:15;;;;;;;7.03;3.08;;;;;;;;;;4407517;32;20172;-67
2022/08/15 01:56:45;;;;;;;5.30;3.10;;;;;;;;;;4346747;33;20086;-68
2022/08/15 01:59:19;;;;;;;4.43;2.70;;;;;;;;;;4335449;33;20140;-67
2022/08/15 02:01:57;;;;;;;6.00;2.78;;;;;;;;;;4374016;32;20073;-67
2022/08/15 02:04:34;;;;;;;7.37;2.87;;;;;;;;;;4407576;32;20097;-67
2022/08/15 02:07:05;;;;;;;5.07;2.80;;;;;;;;;;4382928;32;20089;-67
2022/08/15 02:09:32;;;;;;;4.12;2.75;;;;;;;;;;4395561;32;20158;-67
2022/08/15 02:12:01;;;;;;;7.22;2.72;;;;;;;;;;4407558;32;20139;-67
2022/08/15 02:14:31;;;;;;;9.38;3.10;;;;;;;;;;4407736;32;20077;-67
2022/08/15 02:16:57;;;;;;;4.37;2.50;;;;;;;;;;4407271;32;20089;-66
2022/08/15 02:19:24;;;;;;;4.50;2.80;;;;;;;;;;4407048;32;20540;-67
2022/08/15 02:21:50;;;;;;;3.00;2.58;;;;;;;;;;4406995;32;20069;-68
2022/08/15 02:24:22;;;;;;;5.28;2.33;;;;;;;;;;4407315;32;20172;-67
2022/08/15 02:26:51;;;;;;;3.75;2.70;;;;;;;;;;4407575;32;20482;-67
2022/08/15 02:29:19;;;;;;;3.12;2.42;;;;;;;;;;4407305;32;20076;-67
2022/08/15 02:31:46;;;;;;;5.45;2.80;;;;;;;;;;4407194;32;20077;-67
2022/08/15 02:34:13;;;;;;;5.03;3.10;;;;;;;;;;4394344;32;20161;-68
2022/08/15 02:36:40;;;;;;;5.05;2.65;;;;;;;;;;4406817;32;20081;-67
2022/08/15 02:39:09;;;;;;;5.47;2.90;;;;;;;;;;4408668;32;20161;-66
2022/08/15 02:41:40;;;;;;;3.80;2.60;;;;;;;;;;4394556;32;20092;-67
2022/08/15 02:44:07;;;;;;;5.53;2.90;;;;;;;;;;4407286;32;20160;-66
2022/08/15 02:46:36;;;;;;;5.93;2.50;;;;;;;;;;4408449;32;20074;-67
2022/08/15 02:49:11;;;;;;;6.32;2.85;;;;;;;;;;4394828;32;20160;-67
2022/08/15 02:51:39;;;;;;;4.80;2.62;;;;;;;;;;4407432;32;20156;-67
2022/08/15 02:54:06;;;;;;;6.47;3.40;;;;;;;;;;4408107;32;20503;-67
2022/08/15 02:56:33;;;;;;;7.20;2.90;;;;;;;;;;4406613;32;20054;-67
2022/08/15 02:59:01;;;;;;;8.38;3.28;;;;;;;;;;4406667;32;20157;-67
2022/08/15 03:01:28;;;;;;;5.82;2.95;;;;;;;;;;4394081;32;20107;-67
2022/08/15 03:03:56;;;;;;;5.30;2.95;;;;;;;;;;4406294;32;20592;-67
2022/08/15 03:06:30;;;;;;;5.85;2.65;;;;;;;;;;4393856;32;20535;-68
2022/08/15 03:09:00;;;;;;;5.72;2.70;;;;;;;;;;4406638;32;20173;-67
2022/08/15 03:11:28;;;;;;;5.50;2.95;;;;;;;;;;4394419;32;20160;-67
2022/08/15 03:13:55;;;;;;;5.72;2.95;;;;;;;;;;4394061;32;20088;-68
2022/08/15 03:16:22;;;;;;;5.47;2.47;;;;;;;;;;4393803;32;20093;-67
2022/08/15 03:18:49;;;;;;;7.30;3.10;;;;;;;;;;4408248;32;20104;-67
2022/08/15 03:21:19;;;;;;;6.93;3.00;;;;;;;;;;4406303;32;20164;-67
2022/08/15 03:23:49;;;;;;;8.63;3.28;;;;;;;;;;4406529;32;20072;-67
2022/08/15 03:26:21;;;;;;;7.12;3.03;;;;;;;;;;4409439;32;20082;-68
2022/08/15 03:28:48;;;;;;;6.43;2.87;;;;;;;;;;4410599;32;20078;-68
2022/08/15 03:31:14;;;;;;;7.47;2.83;;;;;;;;;;4406932;32;20088;-67
2022/08/15 03:33:44;;;;;;;11.35;3.10;;;;;;;;;;4406652;32;20093;-67
2022/08/15 03:36:11;;;;;;;4.82;2.80;;;;;;;;;;4407214;32;20077;-67
2022/08/15 03:38:38;;;;;;;5.53;2.83;;;;;;;;;;4394237;32;20226;-67
2022/08/15 03:41:08;;;;;;;4.55;2.60;;;;;;;;;;4394181;32;20093;-66
2022/08/15 03:43:37;;;;;;;4.37;3.00;;;;;;;;;;4406324;32;20081;-67
2022/08/15 03:46:09;;;;;;;7.05;3.05;;;;;;;;;;4406628;32;20086;-67
2022/08/15 03:48:45;;;;;;;4.87;3.30;;;;;;;;;;4405834;32;20092;-67
2022/08/15 03:51:11;;;;;;;;;;;;;;;;;;4406494;32;20086;-66
2022/08/15 03:53:44;;;;;;;;;;;;;;;;;;4406326;32;20336;-66
2022/08/15 03:56:16;;;;;;;6.85;3.50;;;;;;;;;;4407519;32;20003;-67
2022/08/15 03:58:43;;;;;;;9.90;4.35;;;;;;;;;;4393887;32;20088;-67
2022/08/15 04:01:15;;;;;;;9.15;3.80;;;;;;;;;;4407242;32;20096;-66
2022/08/15 04:03:42;;;;;;;9.32;5.30;;;;;;;;;;4405673;32;20450;-67
2022/08/15 04:06:10;;;;;;;10.02;5.03;;;;;;;;;;4393145;32;20535;-66
2022/08/15 04:08:38;;;;;;;14.40;5.30;;;;;;;;;;4393527;32;20085;-66
2022/08/15 04:11:06;;;;;;;20.58;7.82;;;;;;;;;;4405897;32;20078;-67
2022/08/15 04:13:35;;;;;;;26.23;9.02;;;;;;;;;;4381508;32;20085;-68
2022/08/15 04:16:02;;;;;;;28.52;9.90;;;;;;;;;;4405902;32;20077;-68
2022/08/15 04:18:30;;;;;;;29.48;10.27;;;;;;;;;;4393453;32;20085;-68
2022/08/15 04:20:59;;;;;;;35.50;11.85;;;;;;;;;;4390638;32;20072;-67
2022/08/15 04:23:26;;;;;;;25.77;9.68;;;;;;;;;;4391554;32;20160;-67
2022/08/15 04:25:53;;;;;;;30.23;11.55;;;;;;;;;;4392270;32;20077;-68
2022/08/15 04:28:22;;;;;;;24.52;10.50;;;;;;;;;;4393735;32;20074;-68
2022/08/15 04:30:49;;;;;;;31.27;11.85;;;;;;;;;;4367046;32;20085;-66
2022/08/15 04:33:19;;;;;;;23.80;9.38;;;;;;;;;;4392569;32;20078;-67
2022/08/15 04:35:49;;;;;;;21.35;7.30;;;;;;;;;;4380129;32;20073;-67
2022/08/15 04:38:16;;;;;;;20.50;7.03;;;;;;;;;;4380929;32;20072;-67
2022/08/15 04:40:44;;;;;;;11.80;5.00;;;;;;;;;;4394457;32;20070;-67
2022/08/15 04:43:10;;;;;;;13.10;5.00;;;;;;;;;;4381713;32;20081;-67
2022/08/15 04:45:39;;;;;;;11.82;5.22;;;;;;;;;;4403980;32;20065;-68
2022/08/15 04:48:07;;;;;;;8.75;4.53;;;;;;;;;;4382212;32;20154;-67
2022/08/15 04:50:36;;;;;;;12.88;4.12;;;;;;;;;;4381475;32;20613;-67
2022/08/15 04:53:04;;;;;;;9.07;3.70;;;;;;;;;;4396009;32;20169;-67
2022/08/15 04:55:31;;;;;;;12.73;4.47;;;;;;;;;;4394232;32;20144;-66
2022/08/15 04:57:58;;;;;;;10.30;3.90;;;;;;;;;;4403921;32;20062;-67
2022/08/15 05:00:28;;;;;;;6.37;3.03;;;;;;;;;;4393589;32;20078;-67
2022/08/15 05:03:06;;;;;;;9.20;3.15;;;;;;;;;;4392303;32;20090;-68
2022/08/15 05:05:46;;;;;;;5.43;2.70;;;;;;;;;;4407900;32;20084;-74
2022/08/15 05:08:13;;;;;;;5.15;2.87;;;;;;;;;;4405738;32;20077;-68
2022/08/15 05:10:40;;;;;;;6.70;2.80;;;;;;;;;;4398067;32;20488;-68
2022/08/15 05:13:18;;;;;;;5.68;2.67;;;;;;;;;;4391046;32;20077;-68
2022/08/15 05:15:46;;;;;;;6.37;2.95;;;;;;;;;;4391221;32;20125;-67
2022/08/15 05:18:14;;;;;;;4.90;2.83;;;;;;;;;;4380166;32;20062;-67
2022/08/15 05:20:41;;;;;;;6.78;3.35;;;;;;;;;;4381217;32;20539;-67
2022/08/15 05:23:12;;;;;;;3.37;2.30;;;;;;;;;;4393020;32;20520;-65
2022/08/15 05:25:40;;;;;;;4.47;2.83;;;;;;;;;;4392806;32;20149;-66
2022/08/15 05:28:07;;;;;;;4.93;2.83;;;;;;;;;;4377923;32;20161;-66
2022/08/15 05:30:35;;;;;;;7.10;2.72;;;;;;;;;;4377687;32;20078;-66
2022/08/15 05:33:11;;;;;;;4.40;2.78;;;;;;;;;;4377154;32;20082;-66
2022/08/15 05:35:43;;;;;;;4.80;2.47;;;;;;;;;;4364784;32;20479;-67
2022/08/15 05:38:21;;;;;;;3.25;2.42;;;;;;;;;;4390302;32;20093;-66
2022/08/15 05:41:25;;;;;;;4.32;2.40;;;;;;;;;;4391697;32;20078;-68
2022/08/15 05:44:11;;;;;;;3.75;2.72;;;;;;;;;;4390304;32;20089;-68
2022/08/15 05:46:50;;;;;;;5.75;2.87;;;;;;;;;;4390224;32;20169;-67
2022/08/15 05:49:35;;;;;;;7.57;3.00;;;;;;;;;;4389830;32;20082;-67
2022/08/15 05:52:28;;;;;;;5.25;2.53;;;;;;;;;;4390345;32;20068;-66
2022/08/15 05:55:16;;;;;;;4.00;2.30;;;;;;;;;;4391252;32;20162;-68
2022/08/15 05:58:00;;;;;;;6.15;2.75;;;;;;;;;;4391823;32;20182;-67
2022/08/15 06:00:27;;;;;;;3.58;2.33;;;;;;;;;;4390813;32;20081;-67
2022/08/15 06:03:11;;;;;;;3.17;1.90;;;;;;;;;;4377215;32;20078;-67
2022/08/15 06:05:45;;;;;;;3.28;2.30;;;;;;;;;;4378074;32;20130;-67
2022/08/15 06:08:21;;;;;;;6.50;2.60;;;;;;;;;;4389233;32;20097;-67
2022/08/15 06:10:52;;;;;;;4.62;2.25;;;;;;;;;;4392043;32;20516;-67
2022/08/15 06:13:27;;;;;;;3.55;1.92;;;;;;;;;;4378828;32;20120;-66
2022/08/15 06:16:03;;;;;;;4.90;2.15;;;;;;;;;;4378962;32;20070;-67
2022/08/15 06:18:34;;;;;;;3.72;2.22;;;;;;;;;;4391937;32;20100;-67
2022/08/15 06:21:22;;;;;;;6.45;3.10;;;;;;;;;;4391978;32;20083;-66
2022/08/15 06:24:10;;;;;;;4.68;2.25;;;;;;;;;;4391652;32;20085;-68
2022/08/15 06:26:49;;;;;;;2.35;1.92;;;;;;;;;;4391949;32;20077;-68
2022/08/15 06:29:34;;;;;;;3.33;2.05;;;;;;;;;;4391289;32;20090;-67
2022/08/15 06:32:07;;;;;;;4.90;2.35;;;;;;;;;;4391811;32;20073;-68
2022/08/15 06:34:51;;;;;;;3.97;2.55;;;;;;;;;;4379952;32;20077;-66
2022/08/15 06:37:24;;;;;;;3.35;2.53;;;;;;;;;;4392848;32;20491;-67
2022/08/15 06:40:14;;;;;;;5.95;2.83;;;;;;;;;;4391200;32;20146;-67
2022/08/15 06:42:43;;;;;;;3.92;2.40;;;;;;;;;;4384929;32;20089;-67
2022/08/15 06:45:15;;;;;;;6.57;2.35;;;;;;;;;;4391286;32;20157;-67
2022/08/15 06:47:42;;;;;;;4.60;2.42;;;;;;;;;;4393327;32;20093;-67
2022/08/15 06:50:22;;;;;;;5.53;2.20;;;;;;;;;;4366577;32;20116;-67
2022/08/15 06:52:55;;;;;;;3.67;2.20;;;;;;;;;;4378984;32;20169;-68
2022/08/15 06:55:23;;;;;;;3.87;2.10;;;;;;;;;;4378830;32;20593;-67
2022/08/15 06:57:58;;;;;;;3.55;2.30;;;;;;;;;;4393170;32;20157;-66
2022/08/15 07:00:33;;;;;;;4.37;2.20;;;;;;;;;;4378955;32;20064;-67
2022/08/15 07:03:35;;;;;;;5.12;1.90;;;;;;;;;;4378617;32;20178;-67
2022/08/15 07:06:02;;;;;;;3.97;2.58;;;;;;;;;;4393044;32;20071;-66
2022/08/15 07:08:48;;;;;;;3.70;2.28;;;;;;;;;;4391450;32;20097;-67
2022/08/15 07:11:24;;;;;;;3.97;2.25;;;;;;;;;;4391396;32;20078;-67
2022/08/15 07:14:07;;;;;;;5.22;2.10;;;;;;;;;;4379351;32;20085;-68
2022/08/15 07:16:48;;;;;;;6.50;2.40;;;;;;;;;;4379296;32;20109;-67
2022/08/15 07:19:15;;;;;;;3.25;2.22;;;;;;;;;;4391304;32;20077;-67
2022/08/15 07:21:42;;;;;;;3.72;2.50;;;;;;;;;;4378411;32;20077;-68
2022/08/15 07:24:30;;;;;;;7.78;2.85;;;;;;;;;;4391444;32;20082;-67
2022/08/15 07:27:13;;;;;;;4.28;2.65;;;;;;;;;;4392628;32;20070;-66
2022/08/15 07:29:49;;;;;;;2.70;1.77;;;;;;;;;;4378679;32;20171;-66
2022/08/15 07:32:21;;;;;;;;;;;;;;;;;;4366212;32;20082;-66
2022/08/15 07:34:56;;;;;;;5.07;2.35;;;;;;;;;;4404296;32;19969;-67
2022/08/15 07:37:24;;;;;;;5.22;2.50;;;;;;;;;;4378445;32;20093;-66
2022/08/15 07:40:14;;;;;;;6.10;2.30;;;;;;;;;;4378364;32;20457;-66
2022/08/15 07:42:43;;;;;;;4.45;1.90;;;;;;;;;;4390749;32;20201;-67
2022/08/15 07:45:30;;;;;;;2.95;2.10;;;;;;;;;;4391204;32;20083;-66
2022/08/15 07:48:19;;;;;;;3.67;2.50;;;;;;;;;;4392189;32;20088;-67
2022/08/15 07:51:01;;;;;;;5.05;2.45;;;;;;;;;;4365824;32;20070;-66
2022/08/15 07:53:27;;;;;;;5.35;2.22;;;;;;;;;;4393278;32;20080;-68
2022/08/15 07:56:04;;;;;;;5.30;2.00;;;;;;;;;;4390757;32;20165;-67
2022/08/15 07:58:33;;;;;;;5.30;2.58;;;;;;;;;;4391019;32;20097;-67
2022/08/15 08:01:13;;;;;;;5.75;2.28;;;;;;;;;;4391986;32;20063;-66
2022/08/15 08:03:43;;;;;;;6.00;2.35;;;;;;;;;;4365265;32;20088;-66
2022/08/15 08:06:36;;;;;;;3.97;2.45;;;;;;;;;;4391362;32;20148;-67
2022/08/15 08:09:57;;;;;;;5.32;2.50;;;;;;;;;;4387920;32;20066;-67
2022/08/15 08:12:38;;;;;;;2.72;2.20;;;;;;;;;;4352791;32;20087;-67
2022/08/15 08:15:19;;;;;;;4.78;2.42;;;;;;;;;;4388493;32;20129;-66
2022/08/15 08:18:12;;;;;;;2.90;1.95;;;;;;;;;;4392029;32;20072;-66
2022/08/15 08:20:52;;;;;;;4.07;2.50;;;;;;;;;;4366908;32;20062;-67
2022/08/15 08:23:26;;;;;;;4.68;2.85;;;;;;;;;;4390628;32;20093;-66
2022/08/15 08:26:23;;;;;;;4.65;2.17;;;;;;;;;;4390345;32;20084;-66
2022/08/15 08:28:58;;;;;;;2.95;2.12;;;;;;;;;;4391356;32;20099;-66
2022/08/15 08:31:34;;;;;;;9.57;2.87;;;;;;;;;;4392297;32;20085;-68
2022/08/15 08:34:21;;;;;;;2.97;2.15;;;;;;;;;;4390388;32;20077;-67
2022/08/15 08:36:56;;;;;;;4.10;2.15;;;;;;;;;;4390623;32;20088;-67
2022/08/15 08:39:30;;;;;;;5.47;2.40;;;;;;;;;;4390748;32;20065;-67
2022/08/15 08:42:12;;;;;;;5.32;2.50;;;;;;;;;;4391248;32;20066;-67
2022/08/15 08:45:04;;;;;;;6.80;2.30;;;;;;;;;;4393008;32;20073;-68
2022/08/15 08:47:58;;;;;;;3.45;2.70;;;;;;;;;;4379046;32;20129;-67
2022/08/15 08:50:39;;;;;;;5.57;2.53;;;;;;;;;;4394175;32;20066;-67
2022/08/15 08:53:32;;;;;;;3.45;2.25;;;;;;;;;;4391757;32;20158;-67
2022/08/15 08:56:15;;;;;;;6.25;2.42;;;;;;;;;;4378925;32;20058;-67
2022/08/15 08:58:47;;;;;;;3.87;2.50;;;;;;;;;;4377113;32;20078;-68
2022/08/15 09:01:17;;;;;;;6.93;2.08;;;;;;;;;;4389791;32;20096;-68
2022/08/15 09:03:48;;;;;;;7.57;2.85;;;;;;;;;;4365158;32;20082;-66
2022/08/15 09:06:21;;;;;;;7.00;2.83;;;;;;;;;;4390079;32;20159;-67
2022/08/15 09:08:53;;;;;;;7.15;2.80;;;;;;;;;;4378091;32;20089;-66
2022/08/15 09:11:26;;;;;;;2.75;2.08;;;;;;;;;;4390469;32;20070;-68
2022/08/15 09:13:57;;;;;;;5.50;2.60;;;;;;;;;;4377286;32;20066;-67
2022/08/15 09:16:27;;;;;;;6.15;3.10;;;;;;;;;;4377320;32;20556;-66
2022/08/15 09:19:17;;;;;;;4.60;2.50;;;;;;;;;;4377097;32;20062;-66
2022/08/15 09:21:44;;;;;;;2.30;2.10;;;;;;;;;;4391712;32;20058;-68
2022/08/15 09:24:12;;;;;;;7.15;2.90;;;;;;;;;;4391085;32;20181;-69
2022/08/15 09:26:58;;;;;;;7.93;2.30;;;;;;;;;;4377600;32;20086;-67
2022/08/15 09:29:30;;;;;;;6.25;2.55;;;;;;;;;;4390378;32;20147;-67
2022/08/15 09:32:16;;;;;;;4.45;2.70;;;;;;;;;;4377097;32;20172;-68
2022/08/15 09:34:55;;;;;;;4.55;2.78;;;;;;;;;;4391141;32;20066;-66
2022/08/15 09:37:26;;;;;;;3.22;2.30;;;;;;;;;;4377189;32;20082;-69
2022/08/15 09:40:21;;;;;;;3.17;2.30;;;;;;;;;;4391641;32;20085;-67
2022/08/15 09:43:02;;;;;;;4.95;2.70;;;;;;;;;;4392364;32;20073;-66
2022/08/15 09:45:35;;;;;;;5.22;2.35;;;;;;;;;;4383774;32;20077;-67
2022/08/15 09:48:19;;;;;;;7.03;2.97;;;;;;;;;;4393679;32;20078;-68
2022/08/15 09:51:16;;;;;;;23.48;4.12;;;;;;;;;;4380919;32;20169;-66
2022/08/15 09:53:58;;;;;;;3.90;2.25;;;;;;;;;;4392819;32;20506;-66
2022/08/15 09:56:26;;;;;;;3.92;2.20;;;;;;;;;;4392778;32;20098;-67
2022/08/15 09:59:10;;;;;;;6.35;2.33;;;;;;;;;;4380459;32;20495;-66
2022/08/15 10:02:00;;;;;;;4.75;2.47;;;;;;;;;;4380221;32;20093;-68
2022/08/15 10:05:00;;;;;;;4.12;2.87;;;;;;;;;;4367136;32;20078;-66
2022/08/15 10:07:51;;;;;;;5.68;2.15;;;;;;;;;;4396164;32;20093;-66
2022/08/15 10:10:34;;;;;;;4.05;2.30;;;;;;;;;;4379746;32;20098;-66
2022/08/15 10:13:22;;;;;;;5.85;2.50;;;;;;;;;;4394135;32;20078;-67
2022/08/15 10:15:50;;;;;;;4.40;2.60;;;;;;;;;;4393974;32;20160;-66
2022/08/15 10:18:22;;;;;;;3.65;2.35;;;;;;;;;;4368115;32;20175;-67
2022/08/15 10:21:01;;;;;;;6.00;2.55;;;;;;;;;;4395646;32;20150;-67
2022/08/15 10:23:41;;;;;;;4.68;2.65;;;;;;;;;;4383010;32;20063;-67
2022/08/15 10:26:29;;;;;;;2.67;2.28;;;;;;;;;;4396402;32;20065;-68
2022/08/15 10:29:00;;;;;;;4.80;2.22;;;;;;;;;;4392957;32;20507;-67
2022/08/15 10:31:40;;;;;;;2.60;2.10;;;;;;;;;;4392282;32;20068;-67
2022/08/15 10:34:17;;;;;;;3.10;2.33;;;;;;;;;;4391665;32;20523;-67
2022/08/15 10:37:09;;;;;;;5.37;2.72;;;;;;;;;;4393923;32;20161;-66
2022/08/15 10:40:02;;;;;;;6.85;2.42;;;;;;;;;;4369430;32;20094;-68
2022/08/15 10:43:11;;;;;;;3.40;2.60;;;;;;;;;;4398292;32;20488;-68
2022/08/15 10:45:53;;;;;;;4.20;2.17;;;;;;;;;;4349715;32;20086;-68
2022/08/15 10:48:52;;;;;;;4.53;2.90;;;;;;;;;;4378533;32;20077;-68
2022/08/15 10:51:38;;;;;;;4.18;2.70;;;;;;;;;;4395853;32;20081;-68
2022/08/15 10:54:36;;;;;;;4.32;2.50;;;;;;;;;;4399431;32;20074;-67
2022/08/15 10:57:06;;;;;;;4.95;2.62;;;;;;;;;;4397955;32;20080;-66
2022/08/15 10:59:40;;;;;;;4.82;2.40;;;;;;;;;;4396220;32;20170;-67
2022/08/15 11:02:16;;;;;;;3.50;2.25;;;;;;;;;;4379356;32;20207;-66
2022/08/15 11:04:43;;;;;;;4.40;2.00;;;;;;;;;;4392154;32;20149;-68
2022/08/15 11:07:29;;;;;;;5.00;2.25;;;;;;;;;;4378987;32;20173;-67
2022/08/15 11:10:04;;;;;;;4.25;2.50;;;;;;;;;;4391814;32;20069;-67
2022/08/15 11:12:34;;;;;;;4.00;2.33;;;;;;;;;;4391651;32;20066;-67
2022/08/15 11:15:16;;;;;;;2.67;2.30;;;;;;;;;;4379161;32;20162;-68
2022/08/15 11:17:46;;;;;;;3.78;2.20;;;;;;;;;;4369926;32;20065;-66
2022/08/15 11:20:22;;;;;;;5.37;3.08;;;;;;;;;;4385140;32;20090;-66
2022/08/15 11:22:58;;;;;;;3.92;2.50;;;;;;;;;;4396389;32;20155;-66
2022/08/15 11:25:26;;;;;;;;;;;;;;;;;;4392916;32;20161;-67
2022/08/15 11:28:30;;;;;;;4.95;3.08;;;;;;;;;;4391719;32;20065;-67
2022/08/15 11:31:03;;;;;;;4.55;2.50;;;;;;;;;;4391386;32;20541;-67
2022/08/15 11:33:48;;;;;;;5.57;2.67;;;;;;;;;;4391028;32;20542;-67
2022/08/15 11:36:21;;;;;;;6.28;2.90;;;;;;;;;;4391741;32;20088;-66
2022/08/15 11:38:51;;;;;;;7.40;2.50;;;;;;;;;;4366003;32;20508;-67
2022/08/15 11:41:27;;;;;;;7.12;2.80;;;;;;;;;;4368219;32;20205;-67
2022/08/15 11:43:57;;;;;;;6.40;2.40;;;;;;;;;;4383091;32;20078;-68
2022/08/15 11:46:25;;;;;;;6.03;2.33;;;;;;;;;;4369246;32;20098;-68
2022/08/15 11:49:13;;;;;;;4.00;2.50;;;;;;;;;;4380911;32;20167;-67
2022/08/15 11:51:45;;;;;;;2.62;2.10;;;;;;;;;;4400409;32;20145;-68
2022/08/15 11:54:12;;;;;;;5.32;2.80;;;;;;;;;;4376143;32;20104;-68
2022/08/15 11:57:00;;;;;;;5.53;2.70;;;;;;;;;;4391505;32;20078;-66
2022/08/15 11:59:33;;;;;;;7.22;2.33;;;;;;;;;;4367052;32;20088;-68
2022/08/15 12:02:09;;;;;;;3.55;2.35;;;;;;;;;;4392654;32;20082;-68
2022/08/15 12:04:40;;;;;;;2.50;2.10;;;;;;;;;;4390819;32;20149;-68
2022/08/15 12:07:15;;;;;;;4.80;2.47;;;;;;;;;;4392004;32;20078;-67
2022/08/15 12:09:57;;;;;;;3.83;2.60;;;;;;;;;;4392177;32;20095;-67
2022/08/15 12:12:42;;;;;;;7.80;2.78;;;;;;;;;;4365813;32;20066;-68
2022/08/15 12:15:14;;;;;;;3.22;2.47;;;;;;;;;;4392176;32;20077;-67
2022/08/15 12:17:45;;;;;;;4.10;2.50;;;;;;;;;;4390896;32;20111;-69
2022/08/15 12:20:15;;;;;;;5.32;2.62;;;;;;;;;;4384334;32;20089;-67
2022/08/15 12:22:43;;;;;;;5.32;2.92;;;;;;;;;;4390752;32;20069;-67
2022/08/15 12:25:10;;;;;;;7.05;2.85;;;;;;;;;;4390149;32;20512;-67
2022/08/15 12:27:37;;;;;;;5.68;3.17;;;;;;;;;;4378237;32;20082;-67
2022/08/15 12:30:08;;;;;;;7.87;2.70;;;;;;;;;;4390449;32;20081;-67
2022/08/15 12:32:35;;;;;;;4.47;2.50;;;;;;;;;;4378374;32;20525;-68
2022/08/15 12:35:05;;;;;;;5.22;2.65;;;;;;;;;;4390613;32;20154;-68
2022/08/15 12:37:32;;;;;;;6.68;2.67;;;;;;;;;;4390666;32;20094;-68
2022/08/15 12:40:06;;;;;;;4.35;2.53;;;;;;;;;;4391645;32;20617;-67
2022/08/15 12:42:35;;;;;;;3.78;2.30;;;;;;;;;;4378591;32;20081;-68
2022/08/15 12:45:10;;;;;;;4.43;2.45;;;;;;;;;;4377814;32;20148;-67
2022/08/15 12:47:45;;;;;;;3.33;2.30;;;;;;;;;;4378032;32;20096;-66
2022/08/15 12:50:12;;;;;;;2.78;1.50;;;;;;;;;;4377801;32;20080;-68
2022/08/15 12:52:38;;;;;;;3.67;2.58;;;;;;;;;;4377557;32;20101;-68
2022/08/15 12:55:06;;;;;;;4.37;1.98;;;;;;;;;;4390028;32;20090;-68
2022/08/15 12:57:33;;;;;;;4.75;2.65;;;;;;;;;;4377468;32;20193;-68
2022/08/15 13:00:00;;;;;;;5.43;2.50;;;;;;;;;;4390711;32;20086;-68
2022/08/15 13:02:26;;;;;;;4.82;2.40;;;;;;;;;;4365594;32;20441;-68
2022/08/15 13:04:55;;;;;;;5.87;2.67;;;;;;;;;;4389680;32;20519;-68
2022/08/15 13:07:23;;;;;;;7.30;3.45;;;;;;;;;;4389998;32;20157;-67
2022/08/15 13:09:50;;;;;;;4.57;2.35;;;;;;;;;;4377178;32;20084;-68
2022/08/15 13:12:17;;;;;;;3.35;2.25;;;;;;;;;;4364814;32;20164;-67
2022/08/15 13:14:44;;;;;;;5.35;2.55;;;;;;;;;;4377145;32;20081;-67
2022/08/15 13:17:12;;;;;;;5.00;2.45;;;;;;;;;;4377533;32;20097;-67
2022/08/15 13:25:19;;;;;;;4.00;2.70;;;;;;;;;;4382548;32;20077;-68
2022/08/15 13:27:50;;;;;;;4.18;2.45;;;;;;;;;;4393647;32;20084;-68
2022/08/15 13:30:18;;;;;;;5.87;2.40;;;;;;;;;;4393273;32;20173;-68
2022/08/15 13:32:45;;;;;;;3.60;2.42;;;;;;;;;;4380515;32;20074;-66
2022/08/15 13:35:18;;;;;;;9.65;2.65;;;;;;;;;;4393032;32;20098;-67
2022/08/15 13:37:47;;;;;;;3.25;2.45;;;;;;;;;;4380008;32;20080;-68
2022/08/15 13:40:22;;;;;;;5.18;2.60;;;;;;;;;;4392732;32;20062;-68
2022/08/15 13:42:51;;;;;;;3.83;2.25;;;;;;;;;;4380131;32;20522;-66
2022/08/15 13:45:18;;;;;;;3.20;2.30;;;;;;;;;;4392488;32;20078;-66
2022/08/15 13:47:45;;;;;;;3.55;2.55;;;;;;;;;;4380491;32;20109;-67
2022/08/15 13:50:14;;;;;;;3.35;2.20;;;;;;;;;;4380809;32;20066;-68
2022/08/15 13:52:40;;;;;;;4.47;2.80;;;;;;;;;;4380563;32;20082;-68
2022/08/15 13:55:08;;;;;;;3.35;2.30;;;;;;;;;;4393973;32;20142;-66
2022/08/15 13:57:34;;;;;;;4.68;2.50;;;;;;;;;;4392359;32;20153;-67
2022/08/15 14:00:02;;;;;;;3.53;2.60;;;;;;;;;;4368065;32;20104;-67
2022/08/15 14:02:29;;;;;;;7.10;2.75;;;;;;;;;;4394785;32;20522;-67
2022/08/15 14:04:56;;;;;;;4.15;2.20;;;;;;;;;;4373345;32;20085;-66
2022/08/15 14:07:23;;;;;;;4.25;2.35;;;;;;;;;;4395077;32;20081;-68
2022/08/15 14:09:50;;;;;;;4.85;2.58;;;;;;;;;;4392900;32;20081;-67
2022/08/15 14:12:17;;;;;;;4.78;2.47;;;;;;;;;;4392651;32;20166;-68
2022/08/15 14:14:43;;;;;;;3.92;2.90;;;;;;;;;;4394403;32;20492;-69
2022/08/15 14:17:11;;;;;;;4.90;2.60;;;;;;;;;;4393999;32;20081;-68
2022/08/15 14:19:38;;;;;;;3.20;2.33;;;;;;;;;;4392110;32;20455;-68
2022/08/15 14:22:06;;;;;;;2.80;2.05;;;;;;;;;;4380106;32;20139;-68
2022/08/15 14:24:34;;;;;;;4.85;2.80;;;;;;;;;;4393264;32;20102;-68
2022/08/15 14:27:01;;;;;;;3.30;2.60;;;;;;;;;;4393503;32;20452;-68
2022/08/15 14:29:36;;;;;;;6.10;3.08;;;;;;;;;;4379790;32;20061;-68
2022/08/15 14:32:04;;;;;;;5.05;2.83;;;;;;;;;;4379216;32;20531;-66
2022/08/15 14:34:30;;;;;;;6.37;2.80;;;;;;;;;;4393467;32;20069;-68
2022/08/15 14:36:57;;;;;;;4.87;2.05;;;;;;;;;;4379622;32;20526;-67
2022/08/15 14:39:24;;;;;;;4.30;2.78;;;;;;;;;;4391873;32;20085;-68
2022/08/15 14:41:50;;;;;;;7.85;2.22;;;;;;;;;;4392178;32;20093;-67
2022/08/15 14:44:21;;;;;;;4.82;2.20;;;;;;;;;;4393371;32;20082;-68
2022/08/15 14:46:49;;;;;;;4.60;2.40;;;;;;;;;;4380023;32;20085;-67
2022/08/15 14:49:16;;;;;;;4.78;2.58;;;;;;;;;;4391649;32;20149;-68
2022/08/15 14:51:43;;;;;;;4.32;2.70;;;;;;;;;;4366572;32;20178;-68
2022/08/15 14:54:17;;;;;;;3.87;2.72;;;;;;;;;;4383229;32;20082;-67
2022/08/15 14:56:44;;;;;;;4.32;2.90;;;;;;;;;;4392076;32;20080;-68
2022/08/15 14:59:12;;;;;;;3.50;2.33;;;;;;;;;;4401583;32;20081;-67
2022/08/15 15:01:39;;;;;;;5.40;2.65;;;;;;;;;;4379112;32;20113;-68
2022/08/15 15:04:09;;;;;;;4.28;2.58;;;;;;;;;;4378615;32;20085;-68
2022/08/15 15:06:36;;;;;;;3.10;2.20;;;;;;;;;;4379143;32;20096;-68
2022/08/15 15:09:04;;;;;;;5.05;2.60;;;;;;;;;;4393953;32;20073;-68
2022/08/15 15:11:31;;;;;;;4.00;2.40;;;;;;;;;;4394514;32;20078;-68
2022/08/15 15:13:59;;;;;;;5.80;3.35;;;;;;;;;;4391757;32;20247;-67
2022/08/15 15:16:27;;;;;;;4.43;2.67;;;;;;;;;;4396390;32;20185;-66
2022/08/15 15:18:54;;;;;;;5.40;2.50;;;;;;;;;;4373111;32;20073;-67
2022/08/15 15:21:21;;;;;;;4.15;2.80;;;;;;;;;;4383104;32;20074;-67
2022/08/15 15:23:49;;;;;;;7.72;2.67;;;;;;;;;;4385758;32;20074;-66
2022/08/15 15:26:16;;;;;;;3.35;2.60;;;;;;;;;;4385483;32;20089;-67
2022/08/15 15:28:46;;;;;;;2.85;2.30;;;;;;;;;;4374726;32;20089;-68
2022/08/15 15:31:15;;;;;;;6.37;2.65;;;;;;;;;;4372828;32;20081;-69